Time;durP1;ratioP1;P1;durP2;ratioP2;P2;SDS_P1;SDS_P2;PMS_P1;PMS_P2;Temp;Humidity;BMP_temperature;BMP_pressure;BME280_temperature;BME280_humidity;BME280_pressure;Samples;Min_cycle;Max_cycle;Signal;HPM_P1;HPM_P2
2021/12/08 00:01:28;;;;;;;1.10;1.00;;;2.90;98.00;;;;;;5111287;28;20822;-62
2021/12/08 00:03:57;;;;;;;1.10;1.00;;;3.00;98.00;;;;;;5111515;28;20457;-63
2021/12/08 00:06:30;;;;;;;1.10;0.90;;;3.00;98.00;;;;;;5111363;28;20490;-63
2021/12/08 00:09:02;;;;;;;1.10;0.90;;;2.90;98.00;;;;;;5112343;28;20455;-62
2021/12/08 00:14:20;;;;;;;1.20;1.10;;;2.90;98.00;;;;;;5115256;28;20515;-63
2021/12/08 00:16:51;;;;;;;1.10;0.90;;;2.90;98.00;;;;;;5115239;28;20461;-64
2021/12/08 00:19:19;;;;;;;1.10;1.00;;;2.90;98.00;;;;;;5114978;28;20482;-62
2021/12/08 00:21:50;;;;;;;1.20;1.10;;;2.90;98.00;;;;;;5114922;27;20504;-63
2021/12/08 00:24:22;;;;;;;1.10;0.90;;;3.00;98.00;;;;;;5115086;28;20462;-63
2021/12/08 00:26:53;;;;;;;1.10;1.00;;;3.10;98.00;;;;;;5114922;28;21181;-62
2021/12/08 00:29:22;;;;;;;1.10;0.90;;;3.20;98.00;;;;;;5115055;28;20451;-63
2021/12/08 00:31:52;;;;;;;1.37;1.10;;;3.20;98.00;;;;;;5114900;28;20997;-64
2021/12/08 00:34:24;;;;;;;1.10;0.90;;;3.20;98.00;;;;;;5114889;28;20466;-62
2021/12/08 00:36:57;;;;;;;1.60;1.20;;;3.20;98.00;;;;;;5114659;28;20486;-64
2021/12/08 00:39:26;;;;;;;1.10;0.97;;;3.30;98.00;;;;;;5113633;28;20536;-62
2021/12/08 00:41:57;;;;;;;1.20;1.17;;;3.30;98.00;;;;;;5114686;28;20507;-62
2021/12/08 00:44:26;;;;;;;1.17;1.03;;;3.40;98.00;;;;;;5114590;28;20877;-63
2021/12/08 00:47:04;;;;;;;2.33;1.67;;;3.40;98.00;;;;;;5114397;28;20866;-63
2021/12/08 00:49:35;;;;;;;1.17;1.07;;;3.50;98.00;;;;;;5114595;28;20474;-62
2021/12/08 00:52:04;;;;;;;1.40;1.30;;;3.50;98.00;;;;;;5114472;28;20805;-62
2021/12/08 00:54:33;;;;;;;1.30;1.20;;;3.40;98.00;;;;;;5114724;28;20497;-63
2021/12/08 00:57:04;;;;;;;1.10;1.00;;;3.50;98.00;;;;;;5114330;28;20817;-62
2021/12/08 00:59:36;;;;;;;1.10;1.00;;;3.60;98.00;;;;;;5114459;28;20809;-65
2021/12/08 01:02:09;;;;;;;1.10;1.00;;;3.60;98.00;;;;;;5114076;28;20820;-63
2021/12/08 01:04:38;;;;;;;1.10;1.00;;;3.70;98.00;;;;;;5114601;28;20508;-62
2021/12/08 01:07:07;;;;;;;1.10;0.90;;;3.70;98.00;;;;;;5114434;28;20868;-63
2021/12/08 01:09:36;;;;;;;1.20;1.10;;;3.70;98.00;;;;;;5114587;28;20918;-63
2021/12/08 01:12:08;;;;;;;1.10;0.97;;;3.70;98.00;;;;;;5113977;28;20455;-63
2021/12/08 01:14:40;;;;;;;1.20;1.17;;;3.60;98.00;;;;;;5114285;28;20803;-63
2021/12/08 01:17:14;;;;;;;1.10;1.00;;;3.50;98.00;;;;;;5113974;28;20455;-63
2021/12/08 01:19:43;;;;;;;2.07;1.10;;;3.40;98.00;;;;;;5113934;28;20822;-63
2021/12/08 01:22:12;;;;;;;2.07;1.10;;;3.20;98.00;;;;;;5113885;28;20798;-63
2021/12/08 01:24:41;;;;;;;1.30;1.20;;;3.10;98.00;;;;;;5113683;28;20828;-63
2021/12/08 01:27:10;;;;;;;1.20;1.20;;;3.10;98.00;;;;;;5113346;28;20506;-63
2021/12/08 01:29:40;;;;;;;1.17;1.10;;;3.10;98.00;;;;;;5113852;28;20460;-63
2021/12/08 01:32:14;;;;;;;1.10;1.00;;;3.10;98.00;;;;;;5113436;28;20456;-64
2021/12/08 01:34:45;;;;;;;1.20;1.10;;;3.10;98.00;;;;;;5113540;28;20454;-62
2021/12/08 01:37:17;;;;;;;4.20;1.40;;;3.10;98.00;;;;;;5113472;28;20466;-63
2021/12/08 01:39:46;;;;;;;1.10;1.00;;;3.10;98.00;;;;;;5113265;28;20477;-63
2021/12/08 01:42:24;;;;;;;1.20;1.20;;;3.10;98.00;;;;;;5112033;28;20534;-63
2021/12/08 01:47:44;;;;;;;1.40;1.30;;;3.20;98.00;;;;;;5112486;28;20449;-63
2021/12/08 01:50:13;;;;;;;1.50;1.20;;;3.30;98.00;;;;;;5113267;28;20462;-62
2021/12/08 01:52:45;;;;;;;1.20;1.10;;;3.20;98.00;;;;;;5111928;28;20546;-63
2021/12/08 01:55:16;;;;;;;1.10;1.00;;;3.30;98.00;;;;;;5113263;28;20490;-62
2021/12/08 01:57:46;;;;;;;1.10;1.00;;;3.30;98.00;;;;;;5113161;28;20450;-63
2021/12/08 02:00:25;;;;;;;1.10;1.00;;;3.20;98.00;;;;;;5113096;28;20459;-63
2021/12/08 02:02:59;;;;;;;1.10;0.90;;;3.20;98.00;;;;;;5092840;28;20479;-62
2021/12/08 02:05:32;;;;;;;1.20;1.00;;;3.20;98.00;;;;;;5092672;28;20458;-62
2021/12/08 02:08:04;;;;;;;1.20;1.10;;;3.30;98.00;;;;;;5092807;28;20451;-64
2021/12/08 02:10:38;;;;;;;1.10;1.00;;;3.30;98.00;;;;;;5092748;28;20942;-63
2021/12/08 02:13:12;;;;;;;1.10;0.90;;;3.20;98.00;;;;;;5092664;28;20448;-65
2021/12/08 02:15:44;;;;;;;1.10;1.00;;;3.10;98.00;;;;;;5091391;28;20938;-63
2021/12/08 02:18:18;;;;;;;1.10;1.00;;;2.90;98.00;;;;;;5092526;28;20450;-62
2021/12/08 02:20:53;;;;;;;1.10;1.00;;;2.90;98.00;;;;;;5092628;28;20452;-64
2021/12/08 02:23:24;;;;;;;1.10;1.00;;;2.80;98.00;;;;;;5092654;28;20466;-63
2021/12/08 02:25:56;;;;;;;1.10;0.90;;;2.80;98.00;;;;;;5091274;28;20506;-63
2021/12/08 02:28:25;;;;;;;1.10;0.97;;;2.80;98.00;;;;;;5092498;28;20492;-62
2021/12/08 02:31:00;;;;;;;1.10;1.00;;;3.00;98.00;;;;;;5092690;28;20479;-63
2021/12/08 02:47:43;;;;;;;1.93;1.20;;;2.70;98.00;;;;;;5091838;28;20479;-64
2021/12/08 02:50:14;;;;;;;2.33;1.30;;;2.60;98.00;;;;;;5091906;28;20455;-62
2021/12/08 02:56:36;;;;;;;1.10;1.00;;;2.60;98.00;;;;;;5091467;28;20413;-62
2021/12/08 02:59:23;;;;;;;1.10;1.00;;;2.60;98.00;;;;;;5091576;28;20487;-63
2021/12/08 03:01:57;;;;;;;1.10;1.10;;;2.70;98.00;;;;;;5091413;28;20470;-63
2021/12/08 03:04:27;;;;;;;1.10;1.00;;;2.70;98.00;;;;;;5091601;28;20448;-62
2021/12/08 03:06:56;;;;;;;1.10;0.93;;;2.70;98.00;;;;;;5091701;28;20483;-63
2021/12/08 03:09:26;;;;;;;1.20;1.20;;;2.70;98.00;;;;;;5091595;28;20470;-62
2021/12/08 03:11:59;;;;;;;1.10;1.00;;;2.80;98.00;;;;;;5091913;28;20455;-64
2021/12/08 03:14:29;;;;;;;1.10;1.00;;;2.80;98.00;;;;;;5091617;28;20456;-63
2021/12/08 03:17:10;;;;;;;1.10;1.10;;;2.80;98.00;;;;;;5091717;28;20456;-62
2021/12/08 03:19:42;;;;;;;1.10;1.00;;;2.70;98.00;;;;;;5091010;28;20459;-64
2021/12/08 03:22:14;;;;;;;1.20;1.10;;;2.70;98.00;;;;;;5091583;28;20456;-62
2021/12/08 03:24:47;;;;;;;1.10;1.00;;;2.80;98.00;;;;;;5091760;28;20495;-64
2021/12/08 03:27:25;;;;;;;1.10;1.00;;;2.80;98.00;;;;;;5091613;28;20578;-63
2021/12/08 03:30:01;;;;;;;1.10;0.90;;;2.80;98.00;;;;;;5091667;28;20463;-63
2021/12/08 03:32:35;;;;;;;1.60;1.20;;;2.80;98.00;;;;;;5091655;28;20486;-63
2021/12/08 03:35:12;;;;;;;1.10;1.00;;;2.80;98.00;;;;;;5090513;28;20451;-62
2021/12/08 03:38:03;;;;;;;1.10;1.10;;;2.90;98.00;;;;;;5091608;28;20459;-63
2021/12/08 03:40:33;;;;;;;1.10;1.00;;;3.00;98.00;;;;;;5091378;28;20480;-63
2021/12/08 03:43:05;;;;;;;1.20;1.10;;;3.10;98.00;;;;;;5091610;28;20899;-62
2021/12/08 03:45:36;;;;;;;1.83;1.10;;;3.10;98.00;;;;;;5094049;28;20458;-63
2021/12/08 03:48:11;;;;;;;1.10;1.00;;;3.00;98.00;;;;;;5095286;28;20479;-62
2021/12/08 03:50:42;;;;;;;1.10;0.97;;;3.00;98.00;;;;;;5095478;28;20455;-62
2021/12/08 03:53:16;;;;;;;1.10;1.00;;;3.00;98.00;;;;;;5095040;28;20466;-61
2021/12/08 03:55:47;;;;;;;1.30;1.10;;;2.90;98.00;;;;;;5095267;28;20470;-62
2021/12/08 03:58:20;;;;;;;1.17;1.03;;;3.00;98.00;;;;;;5095266;28;20814;-63
2021/12/08 04:00:51;;;;;;;1.10;0.90;;;3.10;98.00;;;;;;5095094;28;20459;-63
2021/12/08 04:03:20;;;;;;;1.10;0.97;;;3.00;98.00;;;;;;5094806;28;20472;-62
2021/12/08 04:05:54;;;;;;;1.10;1.00;;;3.00;98.00;;;;;;5094975;28;20532;-63
2021/12/08 04:08:32;;;;;;;1.10;1.00;;;2.90;98.00;;;;;;5094721;28;20487;-63
2021/12/08 04:11:08;;;;;;;1.10;1.00;;;3.10;98.00;;;;;;5094862;28;20783;-62
2021/12/08 04:13:46;;;;;;;1.10;0.90;;;3.10;98.00;;;;;;5094807;28;20469;-64
2021/12/08 04:16:18;;;;;;;1.10;1.00;;;3.30;98.00;;;;;;5094836;28;20448;-64
2021/12/08 04:18:48;;;;;;;1.10;1.00;;;3.30;98.00;;;;;;5093888;28;20459;-62
2021/12/08 04:21:20;;;;;;;1.10;1.00;;;3.20;98.00;;;;;;5094029;28;20459;-64
2021/12/08 04:23:51;;;;;;;1.10;1.00;;;3.20;98.00;;;;;;5094138;28;20462;-62
2021/12/08 04:26:23;;;;;;;1.10;0.90;;;3.10;98.00;;;;;;5094591;28;20507;-63
2021/12/08 04:28:55;;;;;;;1.10;1.00;;;3.00;98.00;;;;;;5094439;28;20452;-62
2021/12/08 04:31:31;;;;;;;1.10;1.10;;;3.00;98.00;;;;;;5094251;28;20460;-63
2021/12/08 04:34:12;;;;;;;1.10;1.07;;;3.00;98.00;;;;;;5094382;28;20460;-63
2021/12/08 04:36:45;;;;;;;1.30;1.10;;;3.20;98.00;;;;;;5094507;28;20817;-63
2021/12/08 04:39:25;;;;;;;1.10;1.00;;;3.30;98.00;;;;;;5094379;28;20488;-62
2021/12/08 04:42:00;;;;;;;1.10;1.00;;;3.10;98.00;;;;;;5094311;28;20484;-63
2021/12/08 04:44:38;;;;;;;1.30;1.10;;;3.00;98.00;;;;;;5094305;28;20469;-63
2021/12/08 04:47:29;;;;;;;1.10;0.90;;;3.00;98.00;;;;;;5094270;28;21016;-64
2021/12/08 04:52:58;;;;;;;1.10;1.00;;;3.10;98.00;;;;;;5091077;28;20457;-63
2021/12/08 05:01:26;;;;;;;1.10;1.00;;;3.10;98.00;;;;;;5094222;28;20533;-62
2021/12/08 05:04:30;;;;;;;1.10;1.00;;;3.00;98.00;;;;;;5094052;28;20462;-63
2021/12/08 05:07:16;;;;;;;1.10;0.90;;;2.90;98.00;;;;;;5093973;28;20487;-63
2021/12/08 05:09:48;;;;;;;9.23;1.70;;;2.90;98.00;;;;;;5093858;28;20517;-62
2021/12/08 05:12:20;;;;;;;1.10;1.10;;;3.20;98.00;;;;;;5093573;28;20456;-64
2021/12/08 05:14:57;;;;;;;1.10;0.90;;;3.20;98.00;;;;;;5092685;28;20452;-63
2021/12/08 05:17:32;;;;;;;1.10;1.10;;;3.20;98.00;;;;;;5093768;28;20546;-63
2021/12/08 05:20:08;;;;;;;1.10;0.90;;;3.20;98.00;;;;;;5093689;28;20459;-64
2021/12/08 05:22:41;;;;;;;1.80;1.30;;;3.10;98.00;;;;;;5092844;28;20483;-63
2021/12/08 05:25:14;;;;;;;1.10;1.07;;;3.00;98.00;;;;;;5093759;28;20463;-62
2021/12/08 05:27:47;;;;;;;1.10;1.10;;;3.00;98.00;;;;;;5092076;28;20519;-63
2021/12/08 05:30:23;;;;;;;1.10;1.07;;;3.10;98.00;;;;;;5092892;28;20501;-63
2021/12/08 05:32:55;;;;;;;1.10;1.00;;;3.00;98.00;;;;;;5093330;28;20540;-62
2021/12/08 05:35:26;;;;;;;1.70;1.53;;;3.00;98.00;;;;;;5093345;28;20452;-63
2021/12/08 05:37:56;;;;;;;1.10;1.00;;;3.00;98.00;;;;;;5092713;28;20457;-64
2021/12/08 05:40:29;;;;;;;1.10;1.10;;;3.00;98.00;;;;;;5092764;28;20525;-63
2021/12/08 05:42:58;;;;;;;1.13;1.00;;;3.00;98.00;;;;;;5093217;28;20955;-62
2021/12/08 05:45:27;;;;;;;1.10;1.00;;;3.10;98.00;;;;;;5092700;28;20471;-63
2021/12/08 05:47:57;;;;;;;1.10;1.00;;;3.20;98.00;;;;;;5092855;28;21003;-64
2021/12/08 05:50:37;;;;;;;3.40;1.73;;;3.10;98.00;;;;;;5093097;28;20464;-63
2021/12/08 05:53:08;;;;;;;1.10;0.97;;;3.10;98.00;;;;;;5092892;28;21196;-63
2021/12/08 05:55:38;;;;;;;1.10;1.00;;;3.10;98.00;;;;;;5092978;28;20543;-63
2021/12/08 05:58:08;;;;;;;1.10;1.00;;;3.00;98.00;;;;;;5092870;28;20929;-64
2021/12/08 06:00:47;;;;;;;1.10;1.00;;;3.10;98.00;;;;;;5092797;28;20930;-63
2021/12/08 06:03:20;;;;;;;1.30;1.30;;;3.10;98.00;;;;;;5092589;28;20984;-62
2021/12/08 06:05:53;;;;;;;1.10;1.00;;;3.10;98.00;;;;;;5092247;28;21022;-63
2021/12/08 06:08:24;;;;;;;1.20;1.10;;;3.10;98.00;;;;;;5091968;28;20860;-62
2021/12/08 06:10:59;;;;;;;1.40;1.30;;;3.20;98.00;;;;;;5091436;28;20798;-64
2021/12/08 06:13:31;;;;;;;1.77;1.27;;;3.20;98.00;;;;;;5092489;28;20490;-63
2021/12/08 06:16:04;;;;;;;1.20;1.10;;;3.30;98.00;;;;;;5092635;28;20459;-64
2021/12/08 06:18:38;;;;;;;1.10;1.00;;;3.30;98.00;;;;;;5092328;28;20456;-63
2021/12/08 06:21:10;;;;;;;1.87;1.77;;;3.40;98.00;;;;;;5092594;28;20460;-63
2021/12/08 06:23:40;;;;;;;1.10;1.03;;;3.30;98.00;;;;;;5092397;28;20550;-63
2021/12/08 06:26:11;;;;;;;1.40;1.20;;;3.20;98.00;;;;;;5092294;28;20815;-63
2021/12/08 06:28:41;;;;;;;1.10;1.00;;;3.20;98.00;;;;;;5092191;28;20892;-63
2021/12/08 06:31:15;;;;;;;1.20;1.20;;;3.30;98.00;;;;;;5092676;28;20813;-63
2021/12/08 06:33:46;;;;;;;1.10;1.03;;;3.30;98.00;;;;;;5092450;28;20456;-63
2021/12/08 06:36:21;;;;;;;1.10;0.90;;;3.30;98.00;;;;;;5090934;28;20822;-64
2021/12/08 06:38:51;;;;;;;1.10;1.00;;;3.40;98.00;;;;;;5092396;28;20542;-63
2021/12/08 06:41:25;;;;;;;1.37;1.17;;;3.30;98.00;;;;;;5092031;28;20501;-63
2021/12/08 06:44:04;;;;;;;1.60;1.40;;;3.30;98.00;;;;;;5092007;28;20464;-62
2021/12/08 06:46:33;;;;;;;1.13;1.00;;;3.20;98.00;;;;;;5090894;28;20460;-63
2021/12/08 06:49:08;;;;;;;1.10;1.00;;;3.20;98.00;;;;;;5091856;28;20821;-63
2021/12/08 06:51:44;;;;;;;3.73;1.67;;;3.20;98.00;;;;;;5091839;28;20530;-63
2021/12/08 06:54:23;;;;;;;1.10;1.00;;;3.20;98.00;;;;;;5091875;28;20583;-63
2021/12/08 06:56:56;;;;;;;2.13;1.27;;;3.20;98.00;;;;;;5091717;28;20473;-63
2021/12/08 06:59:31;;;;;;;1.20;1.10;;;3.20;98.00;;;;;;5091791;28;20935;-62
2021/12/08 07:02:10;;;;;;;1.90;1.53;;;3.40;98.00;;;;;;5091679;28;20467;-63
2021/12/08 07:04:56;;;;;;;1.20;1.20;;;3.40;98.00;;;;;;5091731;28;20459;-62
2021/12/08 07:07:30;;;;;;;1.10;1.00;;;3.40;98.00;;;;;;5091512;28;20565;-63
2021/12/08 07:10:06;;;;;;;1.10;1.00;;;3.40;98.00;;;;;;5091670;28;20603;-63
2021/12/08 07:12:46;;;;;;;1.10;1.00;;;3.40;98.00;;;;;;5089748;28;20482;-63
2021/12/08 07:15:22;;;;;;;1.23;1.17;;;3.40;98.00;;;;;;5091778;28;20555;-62
2021/12/08 07:17:55;;;;;;;1.10;1.00;;;3.50;98.00;;;;;;5092339;28;20453;-63
2021/12/08 07:20:42;;;;;;;3.33;1.20;;;3.60;98.00;;;;;;5095595;28;20456;-64
2021/12/08 07:23:15;;;;;;;1.27;1.10;;;3.90;98.00;;;;;;5095847;28;20460;-63
2021/12/08 07:25:48;;;;;;;3.70;2.03;;;3.90;98.00;;;;;;5095904;28;20942;-62
2021/12/08 07:28:18;;;;;;;1.20;1.10;;;3.80;98.00;;;;;;5095711;28;20480;-64
2021/12/08 07:30:51;;;;;;;1.30;1.20;;;3.70;98.00;;;;;;5095975;28;20448;-64
2021/12/08 07:33:20;;;;;;;1.20;1.20;;;3.60;98.00;;;;;;5095618;28;20448;-65
2021/12/08 07:35:55;;;;;;;1.10;1.00;;;3.60;98.00;;;;;;5095739;28;20462;-63
2021/12/08 07:38:28;;;;;;;2.13;1.97;;;3.70;98.00;;;;;;5095746;28;20772;-63
2021/12/08 07:41:06;;;;;;;1.17;1.03;;;3.80;98.00;;;;;;5095658;28;20456;-63
2021/12/08 07:43:37;;;;;;;1.20;1.20;;;3.90;98.00;;;;;;5095703;28;20451;-63
2021/12/08 07:46:10;;;;;;;1.60;1.33;;;3.80;98.00;;;;;;5094613;28;20447;-62
2021/12/08 07:48:43;;;;;;;1.10;0.97;;;3.90;98.00;;;;;;5095203;28;20519;-63
2021/12/08 07:51:19;;;;;;;1.10;1.00;;;4.00;98.00;;;;;;5095363;28;20458;-63
2021/12/08 07:53:49;;;;;;;1.30;1.20;;;4.20;98.00;;;;;;5095488;28;20459;-63
2021/12/08 07:56:21;;;;;;;1.80;1.10;;;4.30;98.00;;;;;;5095317;28;20451;-62
2021/12/08 07:58:59;;;;;;;1.20;1.20;;;4.30;98.00;;;;;;5095164;28;20447;-63
2021/12/08 08:01:31;;;;;;;2.40;1.63;;;4.50;98.00;;;;;;5094636;28;20953;-62
2021/12/08 08:04:01;;;;;;;1.20;1.10;;;4.30;98.00;;;;;;5094152;28;20481;-63
2021/12/08 08:06:36;;;;;;;1.30;1.27;;;4.30;98.00;;;;;;5095178;28;20452;-62
2021/12/08 08:09:09;;;;;;;1.20;1.10;;;4.10;98.00;;;;;;5094720;28;20479;-63
2021/12/08 08:11:42;;;;;;;1.10;1.00;;;4.00;98.00;;;;;;5094819;28;20460;-63
2021/12/08 08:14:19;;;;;;;1.17;1.17;;;4.00;98.00;;;;;;5094799;28;20448;-62
2021/12/08 08:16:59;;;;;;;2.53;1.60;;;4.00;98.00;;;;;;5094781;28;20456;-63
2021/12/08 08:19:41;;;;;;;1.43;1.10;;;4.00;98.00;;;;;;5094181;28;20470;-63
2021/12/08 08:22:15;;;;;;;1.67;1.57;;;4.10;98.00;;;;;;5094464;28;20467;-62
2021/12/08 08:24:48;;;;;;;1.20;1.17;;;4.10;98.00;;;;;;5094578;28;20455;-62
2021/12/08 08:31:02;;;;;;;3.90;2.00;;;4.50;98.00;;;;;;5093539;28;20914;-62
2021/12/08 08:33:44;;;;;;;1.43;1.33;;;4.70;98.00;;;;;;5094598;28;20451;-62
2021/12/08 08:36:25;;;;;;;16.57;2.00;;;4.70;98.00;;;;;;5094376;28;20457;-63
2021/12/08 08:38:59;;;;;;;1.30;1.27;;;4.60;98.00;;;;;;5094503;28;20465;-63
2021/12/08 08:41:41;;;;;;;1.27;1.23;;;4.70;98.00;;;;;;5094015;28;20458;-63
2021/12/08 08:44:15;;;;;;;1.60;1.50;;;4.70;98.00;;;;;;5094230;28;20453;-64
2021/12/08 08:46:48;;;;;;;1.50;1.40;;;4.70;98.00;;;;;;5094264;28;20459;-62
2021/12/08 08:49:23;;;;;;;2.03;1.33;;;4.80;98.00;;;;;;5094248;28;21007;-63
2021/12/08 08:52:00;;;;;;;1.10;1.00;;;4.80;98.00;;;;;;5094119;28;20516;-62
2021/12/08 08:54:33;;;;;;;1.20;1.03;;;4.80;98.00;;;;;;5094025;28;20456;-63
2021/12/08 08:57:07;;;;;;;1.10;1.10;;;4.80;98.00;;;;;;5094040;28;20448;-62
2021/12/08 08:59:43;;;;;;;1.20;1.03;;;4.80;98.00;;;;;;5094057;28;20988;-62
2021/12/08 09:02:17;;;;;;;1.10;1.00;;;4.80;98.00;;;;;;5093975;28;20492;-62
2021/12/08 09:04:48;;;;;;;1.20;1.10;;;4.70;98.00;;;;;;5094066;28;20453;-63
2021/12/08 09:07:23;;;;;;;1.10;1.00;;;4.90;98.00;;;;;;5094148;28;20457;-62
2021/12/08 09:09:55;;;;;;;2.50;2.30;;;4.70;98.00;;;;;;5093910;28;20479;-61
2021/12/08 09:12:29;;;;;;;1.10;1.00;;;4.70;98.00;;;;;;5092642;28;20548;-64
2021/12/08 09:15:00;;;;;;;2.17;1.30;;;4.70;98.00;;;;;;5094024;28;20453;-63
2021/12/08 09:17:34;;;;;;;1.20;1.10;;;4.70;98.00;;;;;;5093654;28;20467;-62
2021/12/08 09:20:12;;;;;;;1.83;1.70;;;4.90;98.00;;;;;;5093834;28;20458;-63
2021/12/08 09:22:57;;;;;;;1.33;1.30;;;5.00;98.00;;;;;;5093361;28;20489;-62
2021/12/08 09:25:34;;;;;;;1.10;1.00;;;5.10;98.00;;;;;;5092426;28;20482;-62
2021/12/08 09:28:08;;;;;;;1.10;1.00;;;5.00;98.00;;;;;;5090696;28;20517;-62
2021/12/08 09:30:50;;;;;;;1.10;0.93;;;5.10;98.00;;;;;;5090387;28;20460;-63
2021/12/08 09:33:23;;;;;;;1.10;1.00;;;5.00;98.00;;;;;;5090709;28;20459;-62
2021/12/08 09:35:56;;;;;;;1.40;1.10;;;4.90;98.00;;;;;;5090419;28;20956;-62
2021/12/08 09:38:29;;;;;;;1.57;1.47;;;4.80;98.00;;;;;;5090135;28;20457;-63
2021/12/08 09:41:05;;;;;;;1.77;1.50;;;4.80;98.00;;;;;;5089639;28;20455;-64
2021/12/08 09:43:37;;;;;;;3.90;2.73;;;4.90;98.00;;;;;;5082138;28;20444;-62
2021/12/08 09:46:11;;;;;;;1.10;1.00;;;4.90;98.00;;;;;;5090609;28;20460;-61
2021/12/08 09:48:41;;;;;;;1.67;1.37;;;4.80;98.00;;;;;;5090532;28;20489;-62
2021/12/08 09:51:13;;;;;;;2.17;1.43;;;4.80;98.00;;;;;;5088255;28;20471;-62
2021/12/08 09:53:46;;;;;;;1.10;1.10;;;4.80;98.00;;;;;;5090290;28;20457;-62
2021/12/08 09:56:17;;;;;;;1.10;1.00;;;4.80;98.00;;;;;;5090121;28;20465;-64
2021/12/08 09:58:47;;;;;;;1.10;1.00;;;4.80;98.00;;;;;;5090305;28;20459;-62
2021/12/08 10:01:19;;;;;;;1.60;1.60;;;4.70;98.00;;;;;;5089502;28;20448;-62
2021/12/08 10:03:49;;;;;;;1.83;1.40;;;4.70;98.00;;;;;;5088164;28;20518;-64
2021/12/08 10:06:20;;;;;;;1.73;1.57;;;4.90;98.00;;;;;;5090008;28;20467;-63
2021/12/08 10:08:50;;;;;;;2.23;2.03;;;4.90;98.00;;;;;;5089981;28;20485;-62
2021/12/08 10:11:25;;;;;;;2.47;1.63;;;5.00;98.00;;;;;;5090012;28;20451;-63
2021/12/08 10:14:01;;;;;;;1.37;1.20;;;4.90;98.00;;;;;;5089975;28;20452;-63
2021/12/08 10:16:32;;;;;;;1.33;1.27;;;5.00;98.00;;;;;;5072628;28;20539;-63
2021/12/08 10:19:01;;;;;;;1.10;1.00;;;5.00;98.00;;;;;;5089793;28;20838;-62
2021/12/08 10:21:35;;;;;;;1.10;1.00;;;5.00;98.00;;;;;;5089914;28;20456;-63
2021/12/08 10:24:15;;;;;;;2.03;1.23;;;5.00;98.00;;;;;;5090064;28;20462;-64
2021/12/08 10:26:51;;;;;;;1.53;1.30;;;5.00;98.00;;;;;;5082040;28;20491;-64
2021/12/08 10:29:29;;;;;;;1.40;1.33;;;5.00;98.00;;;;;;5082623;28;20486;-62
2021/12/08 10:32:00;;;;;;;1.10;0.90;;;5.00;98.00;;;;;;5090092;28;20527;-63
2021/12/08 10:34:35;;;;;;;1.20;1.10;;;5.00;98.00;;;;;;5089944;28;20531;-62
2021/12/08 10:37:09;;;;;;;1.10;1.00;;;5.00;98.00;;;;;;5089649;28;20458;-63
2021/12/08 10:39:45;;;;;;;1.20;1.20;;;5.00;98.00;;;;;;5081430;28;20465;-64
2021/12/08 10:42:25;;;;;;;1.30;1.10;;;5.10;98.00;;;;;;5089203;28;20492;-61
2021/12/08 10:45:03;;;;;;;1.83;1.63;;;5.10;98.00;;;;;;5089442;28;20456;-62
2021/12/08 10:47:45;;;;;;;1.40;1.40;;;5.00;98.00;;;;;;5089509;28;20505;-63
2021/12/08 10:55:58;;;;;;;1.10;1.00;;;5.00;98.00;;;;;;5083049;28;20439;-63
2021/12/08 10:58:31;;;;;;;1.30;1.20;;;5.20;98.00;;;;;;5089427;28;20541;-65
2021/12/08 11:01:12;;;;;;;1.20;1.07;;;5.40;98.00;;;;;;5089227;28;20485;-62
2021/12/08 11:03:46;;;;;;;1.90;1.40;;;5.50;98.00;;;;;;5089247;28;20444;-63
2021/12/08 11:06:19;;;;;;;1.20;1.20;;;5.60;98.00;;;;;;5089095;28;20457;-63
2021/12/08 11:08:51;;;;;;;1.20;1.10;;;5.60;98.00;;;;;;5089225;28;20607;-62
2021/12/08 11:11:22;;;;;;;46.97;1.73;;;5.50;98.00;;;;;;5089136;28;20492;-62
2021/12/08 11:13:54;;;;;;;2.07;1.93;;;5.50;98.00;;;;;;5091504;28;20822;-62
2021/12/08 11:16:27;;;;;;;1.67;1.30;;;5.40;98.00;;;;;;5091555;28;20457;-62
2021/12/08 11:19:13;;;;;;;2.17;1.77;;;5.30;98.00;;;;;;5091729;28;20839;-62
2021/12/08 11:21:43;;;;;;;4.90;1.83;;;5.30;98.00;;;;;;5091703;28;20455;-62
2021/12/08 11:24:21;;;;;;;1.73;1.67;;;5.20;98.00;;;;;;5091712;28;20456;-63
2021/12/08 11:26:51;;;;;;;3.10;1.83;;;5.20;98.00;;;;;;5091845;28;20448;-62
2021/12/08 11:29:24;;;;;;;3.73;1.70;;;5.30;98.00;;;;;;5091477;28;20480;-62
2021/12/08 11:31:59;;;;;;;3.10;1.80;;;5.40;98.00;;;;;;5090451;28;20533;-63
2021/12/08 11:34:35;;;;;;;1.50;1.40;;;5.40;98.00;;;;;;5091547;28;20932;-62
2021/12/08 11:37:06;;;;;;;1.10;1.00;;;5.50;98.00;;;;;;5089995;28;20986;-62
2021/12/08 11:39:36;;;;;;;1.57;1.47;;;5.50;98.00;;;;;;5091569;28;20815;-62
2021/12/08 11:42:08;;;;;;;1.20;1.03;;;5.50;98.00;;;;;;5091542;28;20542;-63
2021/12/08 11:44:41;;;;;;;1.17;1.03;;;5.50;98.00;;;;;;5091501;28;20528;-62
2021/12/08 11:47:13;;;;;;;1.23;1.20;;;5.50;98.00;;;;;;5091776;28;20553;-62
2021/12/08 11:49:47;;;;;;;1.20;1.10;;;5.50;98.00;;;;;;5091560;28;20512;-63
2021/12/08 11:52:23;;;;;;;3.90;1.20;;;5.50;98.00;;;;;;5091872;28;21016;-63
2021/12/08 11:55:00;;;;;;;2.10;1.60;;;5.60;98.00;;;;;;5091822;28;20925;-62
2021/12/08 11:57:36;;;;;;;1.30;1.20;;;5.80;98.00;;;;;;5091331;28;20464;-63
2021/12/08 12:00:14;;;;;;;1.53;1.37;;;5.70;98.00;;;;;;5091449;28;20464;-64
2021/12/08 12:02:46;;;;;;;1.90;1.60;;;5.80;98.00;;;;;;5091098;28;20503;-62
2021/12/08 12:05:17;;;;;;;1.50;1.10;;;5.80;98.00;;;;;;5092497;28;20480;-63
2021/12/08 12:07:47;;;;;;;2.13;1.47;;;5.90;98.00;;;;;;5095109;28;20461;-63
2021/12/08 12:10:26;;;;;;;1.50;1.40;;;5.90;98.00;;;;;;5094685;28;20483;-62
2021/12/08 12:12:55;;;;;;;4.70;4.40;;;6.00;98.00;;;;;;5094898;28;20450;-64
2021/12/08 12:15:26;;;;;;;5.90;2.90;;;5.80;98.00;;;;;;5094882;28;20864;-62
2021/12/08 12:17:58;;;;;;;2.60;1.93;;;5.70;98.00;;;;;;5094665;28;20539;-62
2021/12/08 12:20:36;;;;;;;2.90;1.57;;;5.70;98.00;;;;;;5094605;28;20461;-64
2021/12/08 12:23:24;;;;;;;1.47;1.30;;;5.70;98.00;;;;;;5093530;28;20863;-63
2021/12/08 12:26:09;;;;;;;1.20;1.10;;;5.60;98.00;;;;;;5094709;28;20468;-63
2021/12/08 12:28:58;;;;;;;1.40;1.30;;;5.50;98.00;;;;;;5094296;28;21044;-64
2021/12/08 12:31:40;;;;;;;1.83;1.33;;;5.50;98.00;;;;;;5094478;28;20811;-63
2021/12/08 12:34:27;;;;;;;1.30;1.10;;;5.50;98.00;;;;;;5094442;28;20464;-63
2021/12/08 12:36:57;;;;;;;1.10;1.00;;;5.50;98.00;;;;;;5094476;28;20461;-63
2021/12/08 12:39:30;;;;;;;1.10;0.90;;;5.50;98.00;;;;;;5094169;28;20466;-63
2021/12/08 12:42:16;;;;;;;3.43;1.20;;;5.60;98.00;;;;;;5094415;28;20462;-63
2021/12/08 12:45:07;;;;;;;2.80;1.60;;;5.60;98.00;;;;;;5094296;28;20463;-64
2021/12/08 12:47:39;;;;;;;4.13;1.40;;;5.70;98.00;;;;;;5094277;28;20817;-63
2021/12/08 12:50:18;;;;;;;1.20;1.10;;;5.70;98.00;;;;;;5094140;28;20486;-63
2021/12/08 12:52:54;;;;;;;1.20;1.20;;;5.70;98.00;;;;;;5094536;28;20487;-63
2021/12/08 12:55:27;;;;;;;2.33;2.07;;;5.70;98.00;;;;;;5094034;28;20994;-63
2021/12/08 12:58:42;;;;;;;1.67;1.47;;;5.70;98.00;;;;;;5094419;28;20484;-63
2021/12/08 13:01:13;;;;;;;1.60;1.27;;;5.80;98.00;;;;;;5031382;28;20481;-64
2021/12/08 13:03:53;;;;;;;1.27;1.23;;;6.00;98.00;;;;;;5088466;28;20478;-63
2021/12/08 13:06:47;;;;;;;1.57;1.20;;;6.20;98.00;;;;;;5094111;28;21121;-63
2021/12/08 13:09:52;;;;;;;2.57;1.67;;;6.20;98.00;;;;;;5093927;28;20487;-63
2021/12/08 13:12:25;;;;;;;1.43;1.10;;;6.20;98.00;;;;;;5094058;28;20488;-63
2021/12/08 13:15:13;;;;;;;3.77;2.27;;;6.10;98.00;;;;;;5092404;28;21043;-63
2021/12/08 13:18:05;;;;;;;2.80;2.60;;;5.90;98.00;;;;;;5093667;28;20503;-63
2021/12/08 13:20:41;;;;;;;2.50;1.60;;;5.80;98.00;;;;;;5092316;28;20449;-64
2021/12/08 13:23:11;;;;;;;1.20;1.10;;;5.70;98.00;;;;;;5091506;28;21008;-63
2021/12/08 13:28:54;;;;;;;1.20;1.07;;;5.60;98.00;;;;;;5088755;28;20964;-63
2021/12/08 13:31:37;;;;;;;1.90;1.90;;;5.80;98.00;;;;;;5093240;28;20463;-63
2021/12/08 13:34:08;;;;;;;4.10;1.40;;;5.90;98.00;;;;;;5093191;28;20813;-63
2021/12/08 13:36:53;;;;;;;1.60;1.60;;;5.80;98.00;;;;;;5093453;28;20465;-62
2021/12/08 13:39:37;;;;;;;1.97;1.87;;;5.80;98.00;;;;;;5090274;28;20465;-63
2021/12/08 13:42:10;;;;;;;3.63;1.57;;;5.80;98.00;;;;;;5092914;28;20468;-62
2021/12/08 13:44:43;;;;;;;1.37;1.30;;;5.80;98.00;;;;;;5093112;28;20455;-63
2021/12/08 13:50:53;;;;;;;1.37;1.10;;;5.90;98.00;;;;;;5090758;28;20486;-62
2021/12/08 13:53:26;;;;;;;1.20;1.20;;;5.80;98.00;;;;;;5092934;28;20457;-62
2021/12/08 13:56:04;;;;;;;1.53;1.23;;;5.80;98.00;;;;;;5092747;28;20453;-62
2021/12/08 13:58:40;;;;;;;4.20;1.87;;;5.80;98.00;;;;;;5092870;28;20451;-62
2021/12/08 14:01:21;;;;;;;1.83;1.73;;;5.80;98.00;;;;;;5092786;28;20462;-62
2021/12/08 14:03:51;;;;;;;1.10;1.00;;;5.70;98.00;;;;;;5093060;28;20461;-62
2021/12/08 14:06:23;;;;;;;1.50;1.40;;;5.50;98.00;;;;;;5092715;28;20517;-61
2021/12/08 14:08:54;;;;;;;1.20;1.20;;;5.50;98.00;;;;;;5092645;28;20470;-62
2021/12/08 14:11:23;;;;;;;1.87;1.83;;;5.50;98.00;;;;;;5092919;28;20454;-61
2021/12/08 14:13:54;;;;;;;1.20;1.10;;;5.50;98.00;;;;;;5092718;28;20452;-62
2021/12/08 14:16:24;;;;;;;6.50;2.13;;;5.60;98.00;;;;;;5092718;28;20457;-61
2021/12/08 14:18:54;;;;;;;1.73;1.40;;;5.60;98.00;;;;;;5092624;28;20465;-61
2021/12/08 14:21:31;;;;;;;1.37;1.10;;;5.70;98.00;;;;;;5092595;28;20531;-61
2021/12/08 14:24:10;;;;;;;1.37;1.30;;;6.00;98.00;;;;;;5092791;28;20456;-62